createdAt,value
2023-03-01T00:00:27.490Z,99167.72
2023-03-01T00:02:33.446Z,99161.69
2023-03-01T00:04:39.013Z,99165.06
2023-03-01T00:06:48.461Z,99160.84
2023-03-01T00:08:53.981Z,99168.50
2023-03-01T00:11:06.950Z,99172.69
2023-03-01T00:13:11.883Z,99165.72
2023-03-01T00:15:16.713Z,99173.44
2023-03-01T00:17:21.558Z,99176.91
2023-03-01T00:19:26.336Z,99175.19
2023-03-01T00:21:31.812Z,99174.16
2023-03-01T00:23:41.486Z,99170.00
2023-03-01T00:25:46.303Z,99176.88
2023-03-01T00:27:51.545Z,99166.66
2023-03-01T00:29:56.387Z,99172.66
2023-03-01T00:32:01.209Z,99166.63
2023-03-01T00:34:07.881Z,99170.88
2023-03-01T00:36:14.773Z,99170.88
2023-03-01T00:38:19.611Z,99163.22
2023-03-01T00:40:27.046Z,99164.91
2023-03-01T00:42:31.853Z,99159.50
2023-03-01T00:44:36.875Z,99157.88
2023-03-01T00:46:42.185Z,99160.31
2023-03-01T00:48:47.057Z,99169.66
2023-03-01T00:50:51.960Z,99160.31
2023-03-01T00:52:57.462Z,99161.97
2023-03-01T00:55:02.223Z,99163.78
2023-03-01T00:57:10.528Z,99161.25
2023-03-01T00:59:18.530Z,99148.50
2023-03-01T01:01:28.434Z,99151.06
2023-03-01T01:03:33.686Z,99140.75
2023-03-01T01:05:39.169Z,99137.41
2023-03-01T01:07:44.003Z,99138.34
2023-03-01T01:09:49.038Z,99139.22
2023-03-01T01:11:55.664Z,99138.47
2023-03-01T01:14:03.247Z,99129.03
2023-03-01T01:16:09.368Z,99137.44
2023-03-01T01:18:16.386Z,99131.31
2023-03-01T01:20:27.236Z,99125.31
2023-03-01T01:22:32.000Z,99126.16
2023-03-01T01:24:37.005Z,99126.94
2023-03-01T01:26:42.151Z,99112.41
2023-03-01T01:28:47.013Z,99114.13
2023-03-01T01:30:54.432Z,99114.13
2023-03-01T01:32:59.367Z,99117.53
2023-03-01T01:35:04.228Z,99106.38
2023-03-01T01:37:09.091Z,99113.19
2023-03-01T01:39:14.968Z,99101.09
2023-03-01T01:41:21.037Z,99109.69
2023-03-01T01:43:27.999Z,99100.44
2023-03-01T01:45:38.726Z,99094.50
2023-03-01T01:47:49.687Z,99097.91
2023-03-01T01:49:57.965Z,99100.44
2023-03-01T01:52:12.472Z,99102.16
2023-03-01T01:54:22.257Z,99096.19
2023-03-01T01:56:28.365Z,99086.88
2023-03-01T01:58:34.434Z,99089.53
2023-03-01T02:00:40.983Z,99087.88
2023-03-01T02:02:53.006Z,99085.28
2023-03-01T02:05:11.293Z,99085.28
2023-03-01T02:07:20.329Z,99071.66
2023-03-01T02:09:29.204Z,99076.78
2023-03-01T02:11:35.486Z,99074.25
2023-03-01T02:13:41.030Z,99077.69
2023-03-01T02:15:46.390Z,99067.47
2023-03-01T02:17:55.677Z,99066.66
2023-03-01T02:20:15.980Z,99064.03
2023-03-01T02:22:26.490Z,99065.75
2023-03-01T02:24:40.263Z,99054.72
2023-03-01T02:26:52.416Z,99058.97
2023-03-01T02:29:01.161Z,99042.75
2023-03-01T02:31:21.185Z,99051.34
2023-03-01T02:33:26.030Z,99041.94
2023-03-01T02:35:34.654Z,99046.25
2023-03-01T02:37:40.706Z,99041.97
2023-03-01T02:39:50.362Z,99050.53
2023-03-01T02:41:57.840Z,99045.44
2023-03-01T02:44:05.604Z,99042.03
2023-03-01T02:46:12.647Z,99037.78
2023-03-01T02:48:17.500Z,99038.63
2023-03-01T02:50:42.613Z,99040.28
2023-03-01T02:52:51.856Z,99031.59
2023-03-01T02:55:02.890Z,99037.53
2023-03-01T02:57:08.624Z,99034.09
2023-03-01T02:59:16.663Z,99032.31
2023-03-01T03:01:22.099Z,99035.75
2023-03-01T03:03:26.981Z,99034.78
2023-03-01T03:05:33.987Z,99033.91
2023-03-01T03:07:41.407Z,99033.94
2023-03-01T03:09:46.270Z,99024.59
2023-03-01T03:11:51.329Z,99025.44
2023-03-01T03:13:57.058Z,99027.97
2023-03-01T03:16:06.473Z,99022.03
2023-03-01T03:18:14.800Z,99017.81
2023-03-01T03:20:21.998Z,99019.50
2023-03-01T03:22:29.866Z,99023.75
2023-03-01T03:24:39.315Z,99020.28
2023-03-01T03:26:44.248Z,99015.09
2023-03-01T03:28:49.117Z,99009.97
2023-03-01T03:30:53.948Z,99019.28
2023-03-01T03:33:03.019Z,99014.19
2023-03-01T03:35:12.588Z,99012.47
2023-03-01T03:37:29.681Z,99008.22
2023-03-01T03:39:35.990Z,99015.03
2023-03-01T03:41:40.865Z,99006.47
2023-03-01T03:43:47.769Z,99008.13
2023-03-01T03:45:55.018Z,99011.25
2023-03-01T03:48:02.541Z,99017.28
2023-03-01T03:50:08.017Z,99014.66
2023-03-01T03:52:14.852Z,99008.69
2023-03-01T03:54:19.783Z,99005.16
2023-03-01T03:56:28.556Z,99005.09
2023-03-01T03:58:33.792Z,99007.66
2023-03-01T04:00:39.966Z,99007.59
2023-03-01T04:02:45.869Z,99003.25
2023-03-01T04:04:53.260Z,99010.88
2023-03-01T04:06:58.102Z,99012.50
2023-03-01T04:09:05.755Z,99008.19
2023-03-01T04:11:22.751Z,99005.69
2023-03-01T04:13:27.607Z,99008.25
2023-03-01T04:15:34.642Z,99009.84
2023-03-01T04:17:40.467Z,99018.41
2023-03-01T04:19:45.317Z,99015.84
2023-03-01T04:21:52.832Z,99020.97
2023-03-01T04:23:57.865Z,99022.63
2023-03-01T04:26:03.137Z,99020.97
2023-03-01T04:28:08.150Z,99020.97
2023-03-01T04:30:14.507Z,99015.84
2023-03-01T04:32:19.690Z,99018.38
2023-03-01T04:34:24.765Z,99015.78
2023-03-01T04:36:34.365Z,99012.41
2023-03-01T04:38:42.764Z,99020.13
2023-03-01T04:40:47.650Z,99016.66
2023-03-01T04:42:52.883Z,99021.69
2023-03-01T04:44:57.702Z,99021.69
2023-03-01T04:47:02.474Z,99017.38
2023-03-01T04:49:07.350Z,99017.34
2023-03-01T04:51:14.619Z,99013.13
2023-03-01T04:53:19.810Z,99018.28
2023-03-01T04:55:27.166Z,99016.63
2023-03-01T04:57:32.068Z,99023.44
2023-03-01T04:59:37.298Z,99013.16
2023-03-01T05:01:43.958Z,99009.75
2023-03-01T05:03:50.647Z,99008.81
2023-03-01T05:05:57.327Z,99011.41
2023-03-01T05:08:04.700Z,99015.72
2023-03-01T05:10:10.061Z,99013.13
2023-03-01T05:12:17.738Z,99007.09
2023-03-01T05:14:22.918Z,99008.84
2023-03-01T05:16:27.442Z,99011.38
2023-03-01T05:18:34.797Z,99009.66
2023-03-01T05:20:39.632Z,99008.88
2023-03-01T05:22:44.489Z,99014.06
2023-03-01T05:24:49.411Z,99012.38
2023-03-01T05:26:55.638Z,99015.81
2023-03-01T05:29:03.112Z,99012.38
2023-03-01T05:31:11.021Z,99010.63
2023-03-01T05:33:16.922Z,99012.25
2023-03-01T05:35:22.310Z,99006.25
2023-03-01T05:37:27.075Z,99005.41
2023-03-01T05:39:33.316Z,99009.66
2023-03-01T05:41:38.053Z,99002.81
2023-03-01T05:43:44.664Z,99011.13
2023-03-01T05:45:52.250Z,99007.81
2023-03-01T05:47:58.216Z,98994.91
2023-03-01T05:50:03.023Z,99001.63
2023-03-01T05:52:08.134Z,98999.88
2023-03-01T05:54:12.763Z,99000.69
2023-03-01T05:56:17.594Z,98996.41
2023-03-01T05:58:23.725Z,98998.97
2023-03-01T06:00:29.088Z,98995.66
2023-03-01T06:02:36.567Z,98994.00
2023-03-01T06:04:41.624Z,98992.25
2023-03-01T06:06:46.394Z,98993.16
2023-03-01T06:08:51.318Z,98994.09
2023-03-01T06:10:56.132Z,98997.56
2023-03-01T06:13:01.247Z,98995.13
2023-03-01T06:15:06.655Z,99000.41
2023-03-01T06:17:11.571Z,99003.03
2023-03-01T06:19:21.068Z,98981.78
2023-03-01T06:21:31.917Z,98991.09
2023-03-01T06:23:37.400Z,98985.09
2023-03-01T06:25:42.287Z,98989.38
2023-03-01T06:27:47.713Z,98985.06
2023-03-01T06:29:52.754Z,98993.47
2023-03-01T06:31:57.573Z,98989.22
2023-03-01T06:34:02.492Z,98984.03
2023-03-01T06:36:12.110Z,98988.38
2023-03-01T06:38:19.656Z,98982.44
2023-03-01T06:40:24.491Z,98981.59
2023-03-01T06:42:29.305Z,98978.16
2023-03-01T06:44:34.544Z,98979.09
2023-03-01T06:46:39.395Z,98985.91
2023-03-01T06:48:44.165Z,98985.13
2023-03-01T06:50:49.104Z,98986.09
2023-03-01T06:52:59.566Z,98990.50
2023-03-01T06:55:05.396Z,98982.88
2023-03-01T06:57:10.137Z,98988.13
2023-03-01T06:59:14.910Z,98987.28
2023-03-01T07:01:19.704Z,98988.19
2023-03-01T07:03:25.035Z,98983.09
2023-03-01T07:05:29.862Z,98983.09
2023-03-01T07:07:34.648Z,98978.00
2023-03-01T07:09:42.139Z,98974.59
2023-03-01T07:11:48.096Z,98968.66
2023-03-01T07:13:52.815Z,98978.13
2023-03-01T07:15:57.880Z,98967.97
2023-03-01T07:18:02.476Z,98975.59
2023-03-01T07:20:08.019Z,98978.13
2023-03-01T07:22:12.878Z,98976.53
2023-03-01T07:24:18.449Z,98971.44
2023-03-01T07:26:26.327Z,98973.25
2023-03-01T07:28:31.552Z,98967.38
2023-03-01T07:30:36.093Z,98964.84
2023-03-01T07:32:41.141Z,98958.91
2023-03-01T07:34:46.046Z,98959.75
2023-03-01T07:36:50.884Z,98958.13
2023-03-01T07:38:56.800Z,98953.00
2023-03-01T07:41:03.033Z,98966.66
2023-03-01T07:43:10.513Z,98951.34
2023-03-01T07:45:16.121Z,98950.53
2023-03-01T07:47:21.093Z,98955.72
2023-03-01T07:49:27.416Z,98950.69
2023-03-01T07:51:32.462Z,98946.44
2023-03-01T07:53:38.198Z,98943.09
2023-03-01T07:55:42.970Z,98938.88
2023-03-01T07:57:47.792Z,98940.63
2023-03-01T07:59:55.231Z,98931.31
2023-03-01T08:02:00.221Z,98941.63
2023-03-01T08:04:08.163Z,98947.69
2023-03-01T08:06:14.532Z,98932.34
2023-03-01T08:08:19.529Z,98932.34
2023-03-01T08:10:24.569Z,98945.22
2023-03-01T08:12:29.380Z,98941.00
2023-03-01T08:14:34.494Z,98937.66
2023-03-01T08:16:42.069Z,98940.28
2023-03-01T08:18:47.234Z,98939.47
2023-03-01T08:20:52.037Z,98937.78
2023-03-01T08:22:56.863Z,98929.25
2023-03-01T08:25:01.695Z,98925.00
2023-03-01T08:27:07.090Z,98922.50
2023-03-01T08:29:11.846Z,98923.41
2023-03-01T08:31:22.887Z,98908.03
2023-03-01T08:33:30.670Z,98909.78
2023-03-01T08:35:37.904Z,98909.84
2023-03-01T08:37:42.792Z,98906.44
2023-03-01T08:39:47.596Z,98904.75
2023-03-01T08:41:53.049Z,98893.66
2023-03-01T08:44:00.050Z,98895.41
2023-03-01T08:46:05.014Z,98897.09
2023-03-01T08:48:09.881Z,98902.25
2023-03-01T08:50:17.332Z,98895.41
2023-03-01T08:52:22.629Z,98886.00
2023-03-01T08:54:27.453Z,98885.16
2023-03-01T08:56:34.940Z,98884.31
2023-03-01T08:58:40.834Z,98889.47
2023-03-01T09:00:45.690Z,98886.06
2023-03-01T09:02:50.516Z,98880.91
2023-03-01T09:04:55.379Z,98880.06
2023-03-01T09:07:05.125Z,98878.34
2023-03-01T09:09:10.397Z,98878.31
2023-03-01T09:11:16.977Z,98871.44
2023-03-01T09:13:21.762Z,98874.03
2023-03-01T09:15:26.550Z,98869.75
2023-03-01T09:17:33.731Z,98867.16
2023-03-01T09:19:38.689Z,98869.72
2023-03-01T09:21:52.819Z,98868.84
2023-03-01T09:24:01.440Z,98862.81
2023-03-01T09:26:06.768Z,98855.09
2023-03-01T09:28:24.136Z,98865.38
2023-03-01T09:30:33.939Z,98851.59
2023-03-01T09:32:43.643Z,98853.25
2023-03-01T09:35:00.984Z,98850.53
2023-03-01T09:37:05.745Z,98853.00
2023-03-01T09:39:13.134Z,98846.81
2023-03-01T09:41:35.400Z,98844.25
2023-03-01T09:43:49.043Z,98848.41
2023-03-01T09:45:57.613Z,98840.53
2023-03-01T09:48:03.280Z,98846.44
2023-03-01T09:50:15.878Z,98843.03
2023-03-01T09:52:29.801Z,98841.47
2023-03-01T09:54:37.291Z,98845.03
2023-03-01T09:56:45.325Z,98839.03
2023-03-01T09:58:55.364Z,98835.56
2023-03-01T10:01:06.266Z,98844.16
2023-03-01T10:03:20.421Z,98836.38
2023-03-01T10:05:40.979Z,98839.69
2023-03-01T10:07:52.909Z,98829.31
2023-03-01T10:10:01.532Z,98830.22
2023-03-01T10:12:12.273Z,98830.31
2023-03-01T10:14:31.729Z,98822.59
2023-03-01T10:16:44.062Z,98825.06
2023-03-01T10:18:52.589Z,98820.72
2023-03-01T10:21:00.137Z,98816.41
2023-03-01T10:23:05.273Z,98811.28
2023-03-01T10:25:19.230Z,98816.34
2023-03-01T10:27:27.587Z,98806.84
2023-03-01T10:29:38.486Z,98804.22
2023-03-01T10:31:47.132Z,98804.13
2023-03-01T10:33:55.964Z,98812.69
2023-03-01T10:36:00.920Z,98804.88
2023-03-01T10:38:11.209Z,98799.63
2023-03-01T10:40:23.264Z,98794.41
2023-03-01T10:42:32.021Z,98799.41
2023-03-01T10:44:45.290Z,98801.88
2023-03-01T10:47:04.004Z,98788.94
2023-03-01T10:49:19.343Z,98785.38
2023-03-01T10:51:26.185Z,98778.44
2023-03-01T10:53:38.072Z,98780.94
2023-03-01T10:55:45.587Z,98777.41
2023-03-01T10:57:51.433Z,98773.84
2023-03-01T11:00:06.057Z,98771.16
2023-03-01T11:02:25.534Z,98756.34
2023-03-01T11:04:30.742Z,98755.50
2023-03-01T11:06:40.154Z,98756.38
2023-03-01T11:08:46.393Z,98740.91
2023-03-01T11:10:53.832Z,98737.47
2023-03-01T11:13:11.019Z,98724.44
2023-03-01T11:15:29.292Z,98720.84
2023-03-01T11:17:53.597Z,98726.66
2023-03-01T11:20:18.522Z,98718.00
2023-03-01T11:22:25.808Z,98715.38
2023-03-01T11:24:42.347Z,98713.69
2023-03-01T11:26:55.784Z,98711.81
2023-03-01T11:29:05.953Z,98701.41
2023-03-01T11:31:13.414Z,98702.06
2023-03-01T11:33:24.122Z,98693.34
2023-03-01T11:35:31.721Z,98694.88
2023-03-01T11:37:41.838Z,98701.59
2023-03-01T11:39:54.059Z,98701.84
2023-03-01T11:42:18.408Z,98689.84
2023-03-01T11:44:30.107Z,98685.44
2023-03-01T11:47:12.542Z,98682.00
2023-03-01T11:49:42.966Z,98688.13
2023-03-01T11:51:57.977Z,98678.41
2023-03-01T11:54:13.707Z,98674.91
2023-03-01T11:56:23.964Z,98671.75
2023-03-01T11:58:49.933Z,98667.44
2023-03-01T12:01:11.013Z,98657.69
2023-03-01T12:03:29.678Z,98647.00
2023-03-01T12:05:59.525Z,98642.47
2023-03-01T12:08:12.546Z,98647.38
2023-03-01T12:10:31.266Z,98637.81
2023-03-01T12:12:46.416Z,98645.59
2023-03-01T12:15:19.353Z,98625.94
2023-03-01T12:17:41.769Z,98631.78
2023-03-01T12:20:11.010Z,98626.59
2023-03-01T12:22:33.774Z,98623.13
2023-03-01T12:24:55.771Z,98627.22
2023-03-01T12:27:17.268Z,98622.78
2023-03-01T12:29:30.109Z,98618.53
2023-03-01T12:31:56.821Z,98612.19
2023-03-01T12:34:09.995Z,98592.94
2023-03-01T12:36:28.629Z,98595.34
2023-03-01T12:38:41.394Z,98597.03
2023-03-01T12:41:25.424Z,98592.50
2023-03-01T12:43:45.106Z,98586.41
2023-03-01T12:46:00.772Z,98584.44
2023-03-01T12:48:24.914Z,98579.34
2023-03-01T12:50:41.071Z,98579.03
2023-03-01T12:52:51.366Z,98566.94
2023-03-01T12:55:00.748Z,98573.88
2023-03-01T12:57:13.512Z,98573.91
2023-03-01T12:59:26.668Z,98568.63
2023-03-01T13:01:40.673Z,98561.50
2023-03-01T13:04:06.794Z,98559.63
2023-03-01T13:06:19.855Z,98565.69
2023-03-01T13:08:31.931Z,98561.34
2023-03-01T13:10:43.177Z,98561.25
2023-03-01T13:12:56.933Z,98558.69
2023-03-01T13:15:01.749Z,98562.31
2023-03-01T13:17:06.633Z,98557.31
2023-03-01T13:19:18.974Z,98556.59
2023-03-01T13:21:35.188Z,98562.59
2023-03-01T13:23:42.649Z,98554.22
2023-03-01T13:26:07.487Z,98555.16
2023-03-01T13:28:42.977Z,98551.63
2023-03-01T13:30:47.854Z,98548.25
2023-03-01T13:32:52.816Z,98537.78
2023-03-01T13:35:05.893Z,98545.66
2023-03-01T13:37:22.130Z,98549.91
2023-03-01T13:39:42.967Z,98541.38
2023-03-01T13:41:55.656Z,98539.88
2023-03-01T13:44:01.479Z,98538.94
2023-03-01T13:46:13.357Z,98540.47
2023-03-01T13:48:26.199Z,98537.75
2023-03-01T13:50:42.648Z,98533.53
2023-03-01T13:52:50.414Z,98527.31
2023-03-01T13:54:56.274Z,98545.38
2023-03-01T13:57:02.937Z,98528.72
2023-03-01T13:59:19.100Z,98522.72
2023-03-01T14:01:30.884Z,98524.63
2023-03-01T14:03:44.834Z,98520.28
2023-03-01T14:06:14.625Z,98519.25
2023-03-01T14:08:26.325Z,98519.28
2023-03-01T14:10:40.178Z,98520.03
2023-03-01T14:12:50.258Z,98515.47
2023-03-01T14:15:02.729Z,98523.88
2023-03-01T14:17:20.509Z,98522.81
2023-03-01T14:19:33.485Z,98517.38
2023-03-01T14:21:41.718Z,98521.44
2023-03-01T14:23:47.865Z,98517.09
2023-03-01T14:25:54.961Z,98524.88
2023-03-01T14:28:23.101Z,98517.09
2023-03-01T14:30:30.055Z,98522.47
2023-03-01T14:32:36.224Z,98521.63
2023-03-01T14:34:47.395Z,98522.44
2023-03-01T14:36:54.807Z,98517.34
2023-03-01T14:39:05.740Z,98505.31
2023-03-01T14:41:13.897Z,98513.94
2023-03-01T14:43:26.874Z,98518.19
2023-03-01T14:45:34.295Z,98517.16
2023-03-01T14:47:43.469Z,98523.97
2023-03-01T14:49:49.990Z,98519.97
2023-03-01T14:52:03.012Z,98526.75
2023-03-01T14:54:22.130Z,98528.56
2023-03-01T14:56:26.944Z,98528.69
2023-03-01T14:58:32.695Z,98521.97
2023-03-01T15:00:38.688Z,98521.84
2023-03-01T15:02:44.183Z,98526.31
2023-03-01T15:04:52.460Z,98522.75
2023-03-01T15:07:06.038Z,98524.56
2023-03-01T15:09:17.752Z,98518.53
2023-03-01T15:11:26.635Z,98515.00
2023-03-01T15:13:34.749Z,98516.72
2023-03-01T15:15:45.834Z,98510.69
2023-03-01T15:17:57.820Z,98522.00
2023-03-01T15:20:03.113Z,98518.47
2023-03-01T15:22:19.468Z,98517.59
2023-03-01T15:24:29.820Z,98516.72
2023-03-01T15:26:39.021Z,98521.06
2023-03-01T15:28:52.826Z,98523.66
2023-03-01T15:31:01.389Z,98522.75
2023-03-01T15:33:23.457Z,98518.47
2023-03-01T15:35:46.687Z,98516.88
2023-03-01T15:37:54.183Z,98522.81
2023-03-01T15:40:00.917Z,98525.41
2023-03-01T15:42:05.729Z,98522.00
2023-03-01T15:44:20.029Z,98540.25
2023-03-01T15:46:29.018Z,98532.56
2023-03-01T15:48:34.664Z,98528.44
2023-03-01T15:50:41.164Z,98524.28
2023-03-01T15:52:46.695Z,98521.69
2023-03-01T15:54:54.238Z,98519.25
2023-03-01T15:56:59.484Z,98538.28
2023-03-01T15:59:05.987Z,98530.66
2023-03-01T16:01:16.582Z,98517.78
2023-03-01T16:03:22.974Z,98523.06
2023-03-01T16:05:31.616Z,98518.72
2023-03-01T16:07:40.786Z,98514.56
2023-03-01T16:09:45.673Z,98506.75
2023-03-01T16:11:53.730Z,98506.03
2023-03-01T16:13:58.541Z,98511.19
2023-03-01T16:16:03.509Z,98516.44
2023-03-01T16:18:11.316Z,98515.56
2023-03-01T16:20:27.203Z,98517.38
2023-03-01T16:22:35.137Z,98514.88
2023-03-01T16:24:41.639Z,98519.13
2023-03-01T16:26:46.532Z,98515.81
2023-03-01T16:28:54.121Z,98522.13
2023-03-01T16:30:58.891Z,98523.13
2023-03-01T16:33:26.042Z,98521.53
2023-03-01T16:35:37.545Z,98526.06
2023-03-01T16:37:42.908Z,98515.69
2023-03-01T16:39:48.169Z,98521.84
2023-03-01T16:41:53.011Z,98521.84
2023-03-01T16:44:00.628Z,98511.56
2023-03-01T16:46:05.533Z,98514.34
2023-03-01T16:48:10.556Z,98519.53
2023-03-01T16:50:15.787Z,98514.41
2023-03-01T16:52:20.697Z,98522.25
2023-03-01T16:54:25.675Z,98518.94
2023-03-01T16:56:31.363Z,98518.38
2023-03-01T16:58:36.374Z,98520.22
2023-03-01T17:00:43.859Z,98527.25
2023-03-01T17:02:48.699Z,98528.94
2023-03-01T17:04:56.022Z,98527.19
2023-03-01T17:07:01.019Z,98530.75
2023-03-01T17:09:05.994Z,98530.78
2023-03-01T17:11:13.024Z,98536.03
2023-03-01T17:13:20.025Z,98531.63
2023-03-01T17:15:24.944Z,98531.69
2023-03-01T17:17:32.663Z,98535.25
2023-03-01T17:19:40.833Z,98544.94
2023-03-01T17:21:45.673Z,98540.81
2023-03-01T17:23:52.253Z,98543.50
2023-03-01T17:25:57.532Z,98545.31
2023-03-01T17:28:02.256Z,98551.50
2023-03-01T17:30:13.938Z,98552.50
2023-03-01T17:32:21.260Z,98562.88
2023-03-01T17:34:29.568Z,98562.09
2023-03-01T17:36:41.756Z,98565.66
2023-03-01T17:38:47.336Z,98564.75
2023-03-01T17:40:52.381Z,98570.94
2023-03-01T17:42:57.242Z,98572.69
2023-03-01T17:45:02.055Z,98575.28
2023-03-01T17:47:07.805Z,98582.31
2023-03-01T17:49:12.597Z,98581.47
2023-03-01T17:51:19.979Z,98585.81
2023-03-01T17:53:24.805Z,98593.56
2023-03-01T17:55:29.610Z,98599.66
2023-03-01T17:57:34.433Z,98598.81
2023-03-01T17:59:39.738Z,98601.56
2023-03-01T18:01:45.474Z,98611.88
2023-03-01T18:03:50.724Z,98612.81
2023-03-01T18:05:56.808Z,98607.69
2023-03-01T18:08:05.403Z,98614.69
2023-03-01T18:10:11.290Z,98618.13
2023-03-01T18:12:16.177Z,98614.81
2023-03-01T18:14:20.972Z,98620.81
2023-03-01T18:16:25.906Z,98620.84
2023-03-01T18:18:32.447Z,98613.97
2023-03-01T18:20:37.213Z,98613.22
2023-03-01T18:22:42.294Z,98612.38
2023-03-01T18:24:49.753Z,98612.38
2023-03-01T18:26:54.542Z,98614.97
2023-03-01T18:29:01.376Z,98612.38
2023-03-01T18:31:08.876Z,98617.63
2023-03-01T18:33:13.767Z,98616.84
2023-03-01T18:35:18.857Z,98615.19
2023-03-01T18:37:23.589Z,98611.84
2023-03-01T18:39:28.504Z,98614.47
2023-03-01T18:41:36.734Z,98612.72
2023-03-01T18:43:41.983Z,98616.16
2023-03-01T18:45:46.663Z,98608.44
2023-03-01T18:47:51.887Z,98606.84
2023-03-01T18:49:56.524Z,98612.03
2023-03-01T18:52:01.351Z,98612.97
2023-03-01T18:54:06.624Z,98607.81
2023-03-01T18:56:11.758Z,98610.38
2023-03-01T18:58:19.238Z,98604.44
2023-03-01T19:00:25.346Z,98601.84
2023-03-01T19:02:30.360Z,98613.94
2023-03-01T19:04:35.408Z,98598.47
2023-03-01T19:06:41.021Z,98595.97
2023-03-01T19:08:46.223Z,98605.44
2023-03-01T19:10:57.464Z,98609.78
2023-03-01T19:13:02.211Z,98603.78
2023-03-01T19:15:10.774Z,98605.53
2023-03-01T19:17:17.719Z,98598.69
2023-03-01T19:19:22.502Z,98609.00
2023-03-01T19:21:27.683Z,98602.13
2023-03-01T19:23:35.054Z,98599.50
2023-03-01T19:25:39.982Z,98602.13
2023-03-01T19:27:45.005Z,98591.91
2023-03-01T19:29:49.854Z,98594.47
2023-03-01T19:31:57.339Z,98597.09
2023-03-01T19:34:11.023Z,98599.66
2023-03-01T19:36:17.638Z,98602.34
2023-03-01T19:38:22.752Z,98593.00
2023-03-01T19:40:27.442Z,98601.56
2023-03-01T19:42:35.186Z,98598.19
2023-03-01T19:44:40.149Z,98602.50
2023-03-01T19:46:45.038Z,98595.63
2023-03-01T19:48:52.534Z,98599.97
2023-03-01T19:50:57.335Z,98594.00
2023-03-01T19:53:02.232Z,98591.47
2023-03-01T19:55:10.008Z,98594.94
2023-03-01T19:57:16.251Z,98600.09
2023-03-01T19:59:24.611Z,98599.28
2023-03-01T20:01:33.157Z,98600.13
2023-03-01T20:03:38.889Z,98586.38
2023-03-01T20:05:46.752Z,98595.00
2023-03-01T20:07:51.945Z,98592.50
2023-03-01T20:09:57.047Z,98597.69
2023-03-01T20:12:02.160Z,98596.03
2023-03-01T20:14:09.157Z,98586.69
2023-03-01T20:16:18.094Z,98594.41
2023-03-01T20:18:23.288Z,98591.00
2023-03-01T20:20:28.047Z,98595.38
2023-03-01T20:22:38.810Z,98594.53
2023-03-01T20:24:44.082Z,98588.53
2023-03-01T20:26:48.686Z,98592.78
2023-03-01T20:28:55.832Z,98594.44
2023-03-01T20:31:06.484Z,98589.34
2023-03-01T20:33:12.420Z,98586.72
2023-03-01T20:35:17.314Z,98584.16
2023-03-01T20:37:23.000Z,98591.03
2023-03-01T20:39:30.456Z,98597.03
2023-03-01T20:41:38.432Z,98593.63
2023-03-01T20:43:44.765Z,98591.91
2023-03-01T20:45:49.559Z,98596.22
2023-03-01T20:47:55.475Z,98585.88
2023-03-01T20:50:02.033Z,98591.88
2023-03-01T20:52:07.020Z,98591.88
2023-03-01T20:54:11.854Z,98593.63
2023-03-01T20:56:20.133Z,98597.97
2023-03-01T20:58:39.444Z,98593.66
2023-03-01T21:00:44.333Z,98595.44
2023-03-01T21:02:49.173Z,98587.78
2023-03-01T21:04:54.184Z,98587.78
2023-03-01T21:06:59.051Z,98591.22
2023-03-01T21:09:03.837Z,98593.84
2023-03-01T21:11:09.014Z,98584.47
2023-03-01T21:13:16.164Z,98593.97
2023-03-01T21:15:29.035Z,98588.81
2023-03-01T21:17:36.255Z,98593.97
2023-03-01T21:19:43.828Z,98580.25
2023-03-01T21:21:48.724Z,98582.84
2023-03-01T21:23:53.639Z,98584.53
2023-03-01T21:26:06.332Z,98588.91
2023-03-01T21:28:11.140Z,98587.25
2023-03-01T21:30:19.507Z,98585.47
2023-03-01T21:32:24.431Z,98576.88
2023-03-01T21:34:29.378Z,98588.09
2023-03-01T21:36:35.454Z,98578.63
2023-03-01T21:38:42.991Z,98576.19
2023-03-01T21:40:47.978Z,98582.13
2023-03-01T21:42:52.768Z,98577.88
2023-03-01T21:44:57.629Z,98578.75
2023-03-01T21:47:05.046Z,98572.81
2023-03-01T21:49:10.913Z,98574.53
2023-03-01T21:51:19.236Z,98575.38
2023-03-01T21:53:24.066Z,98567.66
2023-03-01T21:55:28.928Z,98569.31
2023-03-01T21:57:43.866Z,98571.03
2023-03-01T21:59:48.710Z,98569.31
2023-03-01T22:01:54.777Z,98571.88
2023-03-01T22:04:03.840Z,98570.19
2023-03-01T22:06:09.151Z,98564.22
2023-03-01T22:08:14.031Z,98566.78
2023-03-01T22:10:27.368Z,98573.66
2023-03-01T22:12:32.811Z,98571.09
2023-03-01T22:14:37.902Z,98572.78
2023-03-01T22:16:45.653Z,98571.06
2023-03-01T22:18:51.207Z,98571.94
2023-03-01T22:20:58.698Z,98577.94
2023-03-01T22:23:03.726Z,98576.25
2023-03-01T22:25:09.625Z,98570.22
2023-03-01T22:27:14.665Z,98568.56
2023-03-01T22:29:22.076Z,98571.13
2023-03-01T22:31:27.149Z,98565.13
2023-03-01T22:33:32.014Z,98563.44
2023-03-01T22:35:36.829Z,98565.16
2023-03-01T22:37:44.429Z,98563.47
2023-03-01T22:39:49.230Z,98556.66
2023-03-01T22:41:54.084Z,98553.19
2023-03-01T22:43:59.720Z,98553.19
2023-03-01T22:46:13.233Z,98560.09
2023-03-01T22:48:20.760Z,98558.47
2023-03-01T22:50:25.637Z,98556.75
2023-03-01T22:52:30.477Z,98554.16
2023-03-01T22:54:38.066Z,98555.00
2023-03-01T22:56:43.226Z,98558.47
2023-03-01T22:58:47.903Z,98556.81
2023-03-01T23:00:52.776Z,98562.78
2023-03-01T23:02:57.751Z,98563.63
2023-03-01T23:05:02.637Z,98569.69
2023-03-01T23:07:07.505Z,98569.69
2023-03-01T23:09:13.930Z,98566.25
2023-03-01T23:11:26.033Z,98560.25
2023-03-01T23:13:31.470Z,98564.56
2023-03-01T23:15:36.368Z,98562.00
2023-03-01T23:17:41.725Z,98570.53
2023-03-01T23:19:46.311Z,98553.47
2023-03-01T23:21:51.382Z,98557.75
2023-03-01T23:23:57.734Z,98557.72
2023-03-01T23:26:02.570Z,98562.88
2023-03-01T23:28:10.657Z,98562.84
2023-03-01T23:30:16.081Z,98556.84
2023-03-01T23:32:20.976Z,98565.41
2023-03-01T23:34:25.925Z,98554.28
2023-03-01T23:36:33.034Z,98549.13
2023-03-01T23:38:37.965Z,98553.44
2023-03-01T23:40:42.859Z,98562.88
2023-03-01T23:42:47.968Z,98562.91
2023-03-01T23:44:55.234Z,98558.63
2023-03-01T23:47:00.095Z,98552.63
2023-03-01T23:49:05.189Z,98554.31
2023-03-01T23:51:10.682Z,98550.91
2023-03-01T23:53:18.520Z,98542.38
2023-03-01T23:55:23.941Z,98538.97
2023-03-01T23:57:28.810Z,98539.81
2023-03-01T23:59:33.638Z,98536.41
